sensor_id;sensor_type;location;lat;lon;timestamp;P1;durP1;ratioP1;P2;durP2;ratioP2
22549;SDS011;11441;57.164;-2.120;2022-09-03T00:00:51;12.30;;;2.75;;
22549;SDS011;11441;57.164;-2.120;2022-09-03T00:03:25;13.52;;;3.28;;
22549;SDS011;11441;57.164;-2.120;2022-09-03T00:06:11;13.30;;;3.03;;
22549;SDS011;11441;57.164;-2.120;2022-09-03T00:14:26;19.20;;;3.47;;
22549;SDS011;11441;57.164;-2.120;2022-09-03T00:16:59;23.00;;;3.17;;
22549;SDS011;11441;57.164;-2.120;2022-09-03T00:19:54;10.57;;;2.85;;
22549;SDS011;11441;57.164;-2.120;2022-09-03T00:22:28;14.20;;;3.53;;
22549;SDS011;11441;57.164;-2.120;2022-09-03T00:25:01;18.40;;;4.53;;
22549;SDS011;11441;57.164;-2.120;2022-09-03T00:31:46;15.43;;;3.08;;
22549;SDS011;11441;57.164;-2.120;2022-09-03T00:33:57;14.65;;;3.00;;
22549;SDS011;11441;57.164;-2.120;2022-09-03T00:36:45;18.13;;;2.22;;
22549;SDS011;11441;57.164;-2.120;2022-09-03T00:39:14;15.52;;;2.95;;
22549;SDS011;11441;57.164;-2.120;2022-09-03T00:56:12;11.23;;;2.78;;
22549;SDS011;11441;57.164;-2.120;2022-09-03T01:01:29;13.38;;;3.20;;
22549;SDS011;11441;57.164;-2.120;2022-09-03T01:04:30;14.50;;;2.80;;
22549;SDS011;11441;57.164;-2.120;2022-09-03T01:10:00;14.77;;;2.65;;
22549;SDS011;11441;57.164;-2.120;2022-09-03T01:12:34;11.23;;;2.67;;
22549;SDS011;11441;57.164;-2.120;2022-09-03T01:15:06;13.10;;;2.25;;
22549;SDS011;11441;57.164;-2.120;2022-09-03T01:20:42;13.65;;;2.65;;
22549;SDS011;11441;57.164;-2.120;2022-09-03T01:23:42;19.85;;;3.65;;
22549;SDS011;11441;57.164;-2.120;2022-09-03T01:26:28;16.00;;;2.72;;
22549;SDS011;11441;57.164;-2.120;2022-09-03T01:29:27;9.52;;;2.70;;
22549;SDS011;11441;57.164;-2.120;2022-09-03T01:32:18;10.02;;;2.15;;
22549;SDS011;11441;57.164;-2.120;2022-09-03T01:46:39;13.30;;;3.45;;
22549;SDS011;11441;57.164;-2.120;2022-09-03T01:49:16;15.48;;;2.97;;
22549;SDS011;11441;57.164;-2.120;2022-09-03T01:52:01;13.45;;;2.10;;
22549;SDS011;11441;57.164;-2.120;2022-09-03T02:00:11;11.43;;;2.88;;
22549;SDS011;11441;57.164;-2.120;2022-09-03T02:02:41;13.10;;;2.55;;
22549;SDS011;11441;57.164;-2.120;2022-09-03T02:05:15;9.40;;;2.28;;
22549;SDS011;11441;57.164;-2.120;2022-09-03T02:07:57;8.98;;;1.95;;
22549;SDS011;11441;57.164;-2.120;2022-09-03T02:13:12;9.48;;;2.72;;
22549;SDS011;11441;57.164;-2.120;2022-09-03T02:15:49;15.77;;;2.65;;
22549;SDS011;11441;57.164;-2.120;2022-09-03T02:18:26;20.95;;;3.22;;
22549;SDS011;11441;57.164;-2.120;2022-09-03T02:20:56;18.90;;;3.05;;
22549;SDS011;11441;57.164;-2.120;2022-09-03T02:23:25;18.95;;;4.07;;
22549;SDS011;11441;57.164;-2.120;2022-09-03T02:25:55;16.13;;;3.72;;
22549;SDS011;11441;57.164;-2.120;2022-09-03T02:28:25;15.18;;;2.88;;
22549;SDS011;11441;57.164;-2.120;2022-09-03T02:30:54;17.05;;;3.85;;
22549;SDS011;11441;57.164;-2.120;2022-09-03T02:33:22;10.60;;;2.55;;
22549;SDS011;11441;57.164;-2.120;2022-09-03T02:35:49;14.85;;;3.10;;
22549;SDS011;11441;57.164;-2.120;2022-09-03T02:38:19;17.10;;;4.65;;
22549;SDS011;11441;57.164;-2.120;2022-09-03T02:40:47;14.80;;;3.72;;
22549;SDS011;11441;57.164;-2.120;2022-09-03T02:43:17;11.85;;;2.90;;
22549;SDS011;11441;57.164;-2.120;2022-09-03T02:46:00;14.40;;;3.25;;
22549;SDS011;11441;57.164;-2.120;2022-09-03T02:48:30;19.42;;;3.70;;
22549;SDS011;11441;57.164;-2.120;2022-09-03T02:50:57;14.98;;;4.47;;
22549;SDS011;11441;57.164;-2.120;2022-09-03T02:53:24;20.52;;;3.90;;
22549;SDS011;11441;57.164;-2.120;2022-09-03T02:55:58;15.05;;;3.80;;
22549;SDS011;11441;57.164;-2.120;2022-09-03T02:58:44;12.18;;;2.30;;
22549;SDS011;11441;57.164;-2.120;2022-09-03T03:01:11;9.43;;;2.47;;
22549;SDS011;11441;57.164;-2.120;2022-09-03T03:03:50;14.55;;;3.92;;
22549;SDS011;11441;57.164;-2.120;2022-09-03T03:06:19;14.57;;;2.63;;
22549;SDS011;11441;57.164;-2.120;2022-09-03T03:08:46;15.88;;;3.45;;
22549;SDS011;11441;57.164;-2.120;2022-09-03T03:14:01;10.32;;;2.03;;
22549;SDS011;11441;57.164;-2.120;2022-09-03T03:16:28;12.88;;;3.00;;
22549;SDS011;11441;57.164;-2.120;2022-09-03T03:18:56;26.23;;;4.13;;
22549;SDS011;11441;57.164;-2.120;2022-09-03T03:21:24;16.13;;;3.20;;
22549;SDS011;11441;57.164;-2.120;2022-09-03T03:24:10;16.88;;;3.08;;
22549;SDS011;11441;57.164;-2.120;2022-09-03T03:26:37;13.05;;;3.13;;
22549;SDS011;11441;57.164;-2.120;2022-09-03T03:29:04;20.00;;;4.25;;
22549;SDS011;11441;57.164;-2.120;2022-09-03T03:31:31;13.80;;;3.35;;
22549;SDS011;11441;57.164;-2.120;2022-09-03T03:34:01;15.73;;;3.15;;
22549;SDS011;11441;57.164;-2.120;2022-09-03T03:36:30;10.23;;;2.10;;
22549;SDS011;11441;57.164;-2.120;2022-09-03T03:38:58;14.43;;;3.55;;
22549;SDS011;11441;57.164;-2.120;2022-09-03T03:41:27;12.23;;;2.85;;
22549;SDS011;11441;57.164;-2.120;2022-09-03T03:43:58;11.90;;;2.78;;
22549;SDS011;11441;57.164;-2.120;2022-09-03T03:46:33;20.10;;;4.00;;
22549;SDS011;11441;57.164;-2.120;2022-09-03T03:49:02;9.82;;;2.28;;
22549;SDS011;11441;57.164;-2.120;2022-09-03T03:51:33;16.98;;;3.60;;
22549;SDS011;11441;57.164;-2.120;2022-09-03T03:54:01;13.23;;;3.13;;
22549;SDS011;11441;57.164;-2.120;2022-09-03T03:56:31;8.15;;;1.95;;
22549;SDS011;11441;57.164;-2.120;2022-09-03T03:58:58;11.65;;;2.25;;
22549;SDS011;11441;57.164;-2.120;2022-09-03T04:01:27;19.00;;;3.67;;
22549;SDS011;11441;57.164;-2.120;2022-09-03T04:03:56;12.10;;;2.58;;
22549;SDS011;11441;57.164;-2.120;2022-09-03T04:06:24;13.77;;;3.10;;
22549;SDS011;11441;57.164;-2.120;2022-09-03T04:08:51;10.70;;;3.25;;
22549;SDS011;11441;57.164;-2.120;2022-09-03T04:11:20;14.68;;;3.67;;
22549;SDS011;11441;57.164;-2.120;2022-09-03T04:13:49;14.75;;;3.85;;
22549;SDS011;11441;57.164;-2.120;2022-09-03T04:16:24;13.68;;;3.00;;
22549;SDS011;11441;57.164;-2.120;2022-09-03T04:18:52;21.70;;;4.43;;
22549;SDS011;11441;57.164;-2.120;2022-09-03T04:21:26;11.35;;;2.60;;
22549;SDS011;11441;57.164;-2.120;2022-09-03T04:23:55;15.45;;;3.35;;
22549;SDS011;11441;57.164;-2.120;2022-09-03T04:29:10;18.92;;;3.22;;
22549;SDS011;11441;57.164;-2.120;2022-09-03T04:31:37;20.23;;;4.15;;
22549;SDS011;11441;57.164;-2.120;2022-09-03T04:34:05;20.88;;;4.85;;
22549;SDS011;11441;57.164;-2.120;2022-09-03T04:36:32;13.38;;;3.75;;
22549;SDS011;11441;57.164;-2.120;2022-09-03T04:39:00;13.77;;;3.38;;
22549;SDS011;11441;57.164;-2.120;2022-09-03T04:41:28;23.42;;;4.43;;
22549;SDS011;11441;57.164;-2.120;2022-09-03T04:43:57;16.00;;;3.75;;
22549;SDS011;11441;57.164;-2.120;2022-09-03T04:46:43;11.07;;;2.78;;
22549;SDS011;11441;57.164;-2.120;2022-09-03T04:49:13;11.05;;;3.08;;
22549;SDS011;11441;57.164;-2.120;2022-09-03T04:51:41;13.80;;;2.72;;
22549;SDS011;11441;57.164;-2.120;2022-09-03T04:54:09;15.50;;;3.65;;
22549;SDS011;11441;57.164;-2.120;2022-09-03T04:56:37;13.15;;;3.13;;
22549;SDS011;11441;57.164;-2.120;2022-09-03T04:59:06;11.82;;;2.97;;
22549;SDS011;11441;57.164;-2.120;2022-09-03T05:01:35;17.25;;;4.32;;
22549;SDS011;11441;57.164;-2.120;2022-09-03T05:04:04;20.00;;;4.15;;
22549;SDS011;11441;57.164;-2.120;2022-09-03T05:06:34;10.90;;;3.20;;
22549;SDS011;11441;57.164;-2.120;2022-09-03T05:09:02;17.83;;;3.22;;
22549;SDS011;11441;57.164;-2.120;2022-09-03T05:11:30;16.88;;;3.63;;
22549;SDS011;11441;57.164;-2.120;2022-09-03T05:13:57;19.38;;;4.15;;
22549;SDS011;11441;57.164;-2.120;2022-09-03T05:16:26;9.80;;;2.65;;
22549;SDS011;11441;57.164;-2.120;2022-09-03T05:19:12;10.95;;;2.95;;
22549;SDS011;11441;57.164;-2.120;2022-09-03T05:21:39;20.92;;;3.65;;
22549;SDS011;11441;57.164;-2.120;2022-09-03T05:24:06;23.42;;;4.88;;
22549;SDS011;11441;57.164;-2.120;2022-09-03T05:26:36;8.90;;;2.65;;
22549;SDS011;11441;57.164;-2.120;2022-09-03T05:29:22;19.40;;;3.67;;
22549;SDS011;11441;57.164;-2.120;2022-09-03T05:31:50;13.13;;;2.88;;
22549;SDS011;11441;57.164;-2.120;2022-09-03T05:34:17;22.30;;;3.95;;
22549;SDS011;11441;57.164;-2.120;2022-09-03T05:36:44;14.68;;;2.97;;
22549;SDS011;11441;57.164;-2.120;2022-09-03T05:39:15;11.73;;;3.25;;
22549;SDS011;11441;57.164;-2.120;2022-09-03T05:41:42;23.08;;;5.13;;
22549;SDS011;11441;57.164;-2.120;2022-09-03T05:44:09;17.35;;;3.65;;
22549;SDS011;11441;57.164;-2.120;2022-09-03T05:46:36;23.13;;;5.35;;
22549;SDS011;11441;57.164;-2.120;2022-09-03T05:49:04;16.50;;;3.47;;
22549;SDS011;11441;57.164;-2.120;2022-09-03T05:51:32;16.33;;;3.45;;
22549;SDS011;11441;57.164;-2.120;2022-09-03T05:54:00;17.38;;;3.78;;
22549;SDS011;11441;57.164;-2.120;2022-09-03T05:56:28;15.65;;;3.88;;
22549;SDS011;11441;57.164;-2.120;2022-09-03T05:58:57;16.80;;;3.47;;
22549;SDS011;11441;57.164;-2.120;2022-09-03T06:01:31;17.83;;;4.07;;
22549;SDS011;11441;57.164;-2.120;2022-09-03T06:04:01;7.70;;;2.15;;
22549;SDS011;11441;57.164;-2.120;2022-09-03T06:06:31;14.98;;;3.33;;
22549;SDS011;11441;57.164;-2.120;2022-09-03T06:09:04;12.00;;;3.35;;
22549;SDS011;11441;57.164;-2.120;2022-09-03T06:11:32;23.13;;;5.38;;
22549;SDS011;11441;57.164;-2.120;2022-09-03T06:14:01;17.50;;;3.80;;
22549;SDS011;11441;57.164;-2.120;2022-09-03T06:19:18;21.40;;;4.15;;
22549;SDS011;11441;57.164;-2.120;2022-09-03T06:21:45;20.48;;;4.60;;
22549;SDS011;11441;57.164;-2.120;2022-09-03T06:26:54;18.17;;;3.88;;
22549;SDS011;11441;57.164;-2.120;2022-09-03T06:29:23;17.42;;;3.03;;
22549;SDS011;11441;57.164;-2.120;2022-09-03T06:31:49;20.88;;;4.35;;
22549;SDS011;11441;57.164;-2.120;2022-09-03T06:34:16;21.30;;;4.00;;
22549;SDS011;11441;57.164;-2.120;2022-09-03T06:36:48;16.33;;;4.00;;
22549;SDS011;11441;57.164;-2.120;2022-09-03T06:39:14;18.60;;;4.22;;
22549;SDS011;11441;57.164;-2.120;2022-09-03T06:41:41;19.38;;;4.40;;
22549;SDS011;11441;57.164;-2.120;2022-09-03T06:44:10;22.13;;;4.40;;
22549;SDS011;11441;57.164;-2.120;2022-09-03T06:46:38;16.58;;;3.88;;
22549;SDS011;11441;57.164;-2.120;2022-09-03T06:51:57;17.20;;;4.05;;
22549;SDS011;11441;57.164;-2.120;2022-09-03T06:54:24;24.88;;;4.32;;
22549;SDS011;11441;57.164;-2.120;2022-09-03T06:56:50;20.52;;;4.70;;
22549;SDS011;11441;57.164;-2.120;2022-09-03T06:59:18;15.35;;;4.22;;
22549;SDS011;11441;57.164;-2.120;2022-09-03T07:01:45;20.80;;;4.82;;
22549;SDS011;11441;57.164;-2.120;2022-09-03T07:04:12;11.45;;;2.95;;
22549;SDS011;11441;57.164;-2.120;2022-09-03T07:06:45;24.88;;;4.30;;
22549;SDS011;11441;57.164;-2.120;2022-09-03T07:09:12;16.65;;;3.60;;
22549;SDS011;11441;57.164;-2.120;2022-09-03T07:14:28;31.25;;;5.20;;
22549;SDS011;11441;57.164;-2.120;2022-09-03T07:16:55;15.35;;;3.22;;
22549;SDS011;11441;57.164;-2.120;2022-09-03T07:19:21;18.67;;;4.10;;
22549;SDS011;11441;57.164;-2.120;2022-09-03T07:21:48;18.08;;;3.75;;
22549;SDS011;11441;57.164;-2.120;2022-09-03T07:24:17;14.15;;;3.13;;
22549;SDS011;11441;57.164;-2.120;2022-09-03T07:26:45;20.10;;;4.18;;
22549;SDS011;11441;57.164;-2.120;2022-09-03T07:29:14;17.92;;;4.43;;
22549;SDS011;11441;57.164;-2.120;2022-09-03T07:31:46;16.17;;;4.03;;
22549;SDS011;11441;57.164;-2.120;2022-09-03T07:34:18;12.43;;;2.90;;
22549;SDS011;11441;57.164;-2.120;2022-09-03T07:36:47;16.65;;;3.78;;
22549;SDS011;11441;57.164;-2.120;2022-09-03T07:39:17;18.33;;;3.85;;
22549;SDS011;11441;57.164;-2.120;2022-09-03T07:42:02;22.25;;;5.00;;
22549;SDS011;11441;57.164;-2.120;2022-09-03T07:44:29;20.80;;;4.63;;
22549;SDS011;11441;57.164;-2.120;2022-09-03T07:46:56;15.15;;;4.63;;
22549;SDS011;11441;57.164;-2.120;2022-09-03T07:49:23;20.35;;;4.60;;
22549;SDS011;11441;57.164;-2.120;2022-09-03T07:51:51;16.65;;;3.78;;
22549;SDS011;11441;57.164;-2.120;2022-09-03T07:54:20;25.48;;;4.82;;
22549;SDS011;11441;57.164;-2.120;2022-09-03T07:56:51;17.42;;;3.85;;
22549;SDS011;11441;57.164;-2.120;2022-09-03T07:59:18;25.05;;;4.43;;
22549;SDS011;11441;57.164;-2.120;2022-09-03T08:01:48;16.13;;;3.33;;
22549;SDS011;11441;57.164;-2.120;2022-09-03T08:04:16;25.08;;;4.78;;
22549;SDS011;11441;57.164;-2.120;2022-09-03T08:06:47;20.55;;;5.28;;
22549;SDS011;11441;57.164;-2.120;2022-09-03T08:09:15;18.08;;;4.35;;
22549;SDS011;11441;57.164;-2.120;2022-09-03T08:11:42;29.85;;;6.00;;
22549;SDS011;11441;57.164;-2.120;2022-09-03T08:14:10;19.55;;;4.82;;
22549;SDS011;11441;57.164;-2.120;2022-09-03T08:16:40;21.02;;;4.70;;
22549;SDS011;11441;57.164;-2.120;2022-09-03T08:19:09;13.73;;;3.67;;
22549;SDS011;11441;57.164;-2.120;2022-09-03T08:21:37;22.58;;;5.63;;
22549;SDS011;11441;57.164;-2.120;2022-09-03T08:24:07;26.45;;;7.30;;
22549;SDS011;11441;57.164;-2.120;2022-09-03T08:26:37;18.48;;;4.28;;
22549;SDS011;11441;57.164;-2.120;2022-09-03T08:29:08;20.08;;;4.63;;
22549;SDS011;11441;57.164;-2.120;2022-09-03T08:31:36;16.40;;;3.92;;
22549;SDS011;11441;57.164;-2.120;2022-09-03T08:34:21;16.70;;;3.70;;
22549;SDS011;11441;57.164;-2.120;2022-09-03T08:36:49;18.08;;;5.15;;
22549;SDS011;11441;57.164;-2.120;2022-09-03T08:39:17;21.58;;;4.90;;
22549;SDS011;11441;57.164;-2.120;2022-09-03T08:44:48;21.05;;;4.18;;
22549;SDS011;11441;57.164;-2.120;2022-09-03T08:50:07;16.77;;;4.80;;
22549;SDS011;11441;57.164;-2.120;2022-09-03T08:55:27;28.75;;;5.65;;
22549;SDS011;11441;57.164;-2.120;2022-09-03T09:00:38;21.73;;;5.15;;
22549;SDS011;11441;57.164;-2.120;2022-09-03T09:05:54;17.05;;;3.80;;
22549;SDS011;11441;57.164;-2.120;2022-09-03T09:11:15;16.00;;;4.30;;
22549;SDS011;11441;57.164;-2.120;2022-09-03T09:14:10;21.40;;;4.82;;
22549;SDS011;11441;57.164;-2.120;2022-09-03T09:19:36;21.45;;;5.55;;
22549;SDS011;11441;57.164;-2.120;2022-09-03T09:22:30;23.23;;;5.53;;
22549;SDS011;11441;57.164;-2.120;2022-09-03T09:25:11;18.23;;;5.07;;
22549;SDS011;11441;57.164;-2.120;2022-09-03T09:28:01;26.17;;;6.10;;
22549;SDS011;11441;57.164;-2.120;2022-09-03T09:30:34;20.83;;;4.90;;
22549;SDS011;11441;57.164;-2.120;2022-09-03T09:33:03;18.70;;;4.38;;
22549;SDS011;11441;57.164;-2.120;2022-09-03T09:35:30;25.67;;;5.57;;
22549;SDS011;11441;57.164;-2.120;2022-09-03T09:37:57;21.17;;;4.90;;
22549;SDS011;11441;57.164;-2.120;2022-09-03T09:40:27;18.00;;;4.50;;
22549;SDS011;11441;57.164;-2.120;2022-09-03T09:43:02;19.70;;;4.72;;
22549;SDS011;11441;57.164;-2.120;2022-09-03T09:45:37;19.98;;;4.47;;
22549;SDS011;11441;57.164;-2.120;2022-09-03T09:48:12;19.80;;;4.97;;
22549;SDS011;11441;57.164;-2.120;2022-09-03T09:51:12;24.17;;;5.32;;
22549;SDS011;11441;57.164;-2.120;2022-09-03T09:53:45;20.73;;;5.13;;
22549;SDS011;11441;57.164;-2.120;2022-09-03T09:56:22;18.83;;;4.22;;
22549;SDS011;11441;57.164;-2.120;2022-09-03T09:59:12;20.48;;;5.00;;
22549;SDS011;11441;57.164;-2.120;2022-09-03T10:01:39;18.88;;;4.63;;
22549;SDS011;11441;57.164;-2.120;2022-09-03T10:04:11;14.93;;;4.35;;
22549;SDS011;11441;57.164;-2.120;2022-09-03T10:06:39;18.50;;;5.40;;
22549;SDS011;11441;57.164;-2.120;2022-09-03T10:09:25;16.30;;;4.95;;
22549;SDS011;11441;57.164;-2.120;2022-09-03T10:14:28;20.70;;;4.72;;
22549;SDS011;11441;57.164;-2.120;2022-09-03T10:17:30;17.27;;;4.68;;
22549;SDS011;11441;57.164;-2.120;2022-09-03T10:23:19;15.40;;;4.22;;
22549;SDS011;11441;57.164;-2.120;2022-09-03T10:28:58;14.27;;;4.40;;
22549;SDS011;11441;57.164;-2.120;2022-09-03T10:39:24;17.58;;;4.53;;
22549;SDS011;11441;57.164;-2.120;2022-09-03T10:45:02;22.80;;;4.80;;
22549;SDS011;11441;57.164;-2.120;2022-09-03T10:59:14;16.23;;;4.07;;
22549;SDS011;11441;57.164;-2.120;2022-09-03T11:07:52;24.13;;;5.68;;
22549;SDS011;11441;57.164;-2.120;2022-09-03T11:10:30;18.73;;;4.28;;
22549;SDS011;11441;57.164;-2.120;2022-09-03T11:15:26;15.32;;;5.00;;
22549;SDS011;11441;57.164;-2.120;2022-09-03T11:18:11;15.75;;;5.00;;
22549;SDS011;11441;57.164;-2.120;2022-09-03T11:23:39;17.95;;;5.32;;
22549;SDS011;11441;57.164;-2.120;2022-09-03T11:26:12;18.27;;;4.10;;
22549;SDS011;11441;57.164;-2.120;2022-09-03T11:28:44;15.60;;;4.07;;
22549;SDS011;11441;57.164;-2.120;2022-09-03T11:31:44;24.95;;;6.20;;
22549;SDS011;11441;57.164;-2.120;2022-09-03T11:34:48;29.33;;;5.53;;
22549;SDS011;11441;57.164;-2.120;2022-09-03T11:37:23;21.60;;;5.68;;
22549;SDS011;11441;57.164;-2.120;2022-09-03T11:42:33;22.77;;;3.80;;
22549;SDS011;11441;57.164;-2.120;2022-09-03T11:45:13;17.52;;;4.32;;
22549;SDS011;11441;57.164;-2.120;2022-09-03T11:47:47;19.80;;;5.07;;
22549;SDS011;11441;57.164;-2.120;2022-09-03T11:50:20;19.55;;;4.35;;
22549;SDS011;11441;57.164;-2.120;2022-09-03T11:52:48;16.70;;;4.40;;
22549;SDS011;11441;57.164;-2.120;2022-09-03T11:55:25;27.73;;;5.97;;
22549;SDS011;11441;57.164;-2.120;2022-09-03T11:58:10;20.48;;;5.63;;
22549;SDS011;11441;57.164;-2.120;2022-09-03T12:01:01;25.67;;;6.20;;
22549;SDS011;11441;57.164;-2.120;2022-09-03T12:06:12;18.98;;;5.60;;
22549;SDS011;11441;57.164;-2.120;2022-09-03T12:14:29;20.55;;;5.07;;
22549;SDS011;11441;57.164;-2.120;2022-09-03T12:17:34;24.73;;;5.85;;
22549;SDS011;11441;57.164;-2.120;2022-09-03T12:20:42;26.92;;;4.85;;
22549;SDS011;11441;57.164;-2.120;2022-09-03T12:23:12;17.02;;;4.32;;
22549;SDS011;11441;57.164;-2.120;2022-09-03T12:26:05;25.35;;;6.22;;
22549;SDS011;11441;57.164;-2.120;2022-09-03T12:28:35;16.30;;;4.50;;
22549;SDS011;11441;57.164;-2.120;2022-09-03T12:31:16;24.10;;;4.53;;
22549;SDS011;11441;57.164;-2.120;2022-09-03T12:33:53;23.05;;;5.82;;
22549;SDS011;11441;57.164;-2.120;2022-09-03T12:36:21;23.80;;;4.57;;
22549;SDS011;11441;57.164;-2.120;2022-09-03T12:38:48;20.30;;;5.18;;
22549;SDS011;11441;57.164;-2.120;2022-09-03T12:41:36;23.30;;;5.38;;
22549;SDS011;11441;57.164;-2.120;2022-09-03T12:44:03;27.92;;;6.60;;
22549;SDS011;11441;57.164;-2.120;2022-09-03T12:46:31;17.73;;;4.18;;
22549;SDS011;11441;57.164;-2.120;2022-09-03T12:49:04;22.88;;;5.43;;
22549;SDS011;11441;57.164;-2.120;2022-09-03T12:52:00;19.90;;;4.93;;
22549;SDS011;11441;57.164;-2.120;2022-09-03T12:54:56;28.35;;;5.88;;
22549;SDS011;11441;57.164;-2.120;2022-09-03T12:57:27;22.95;;;6.22;;
22549;SDS011;11441;57.164;-2.120;2022-09-03T13:00:17;22.45;;;5.90;;
22549;SDS011;11441;57.164;-2.120;2022-09-03T13:02:52;19.48;;;5.13;;
22549;SDS011;11441;57.164;-2.120;2022-09-03T13:06:01;23.55;;;5.55;;
22549;SDS011;11441;57.164;-2.120;2022-09-03T13:08:28;15.85;;;3.95;;
22549;SDS011;11441;57.164;-2.120;2022-09-03T13:10:58;18.20;;;4.53;;
22549;SDS011;11441;57.164;-2.120;2022-09-03T13:13:30;28.48;;;6.38;;
22549;SDS011;11441;57.164;-2.120;2022-09-03T13:21:28;20.90;;;5.18;;
22549;SDS011;11441;57.164;-2.120;2022-09-03T13:27:32;22.55;;;5.32;;
22549;SDS011;11441;57.164;-2.120;2022-09-03T13:30:12;15.93;;;5.95;;
22549;SDS011;11441;57.164;-2.120;2022-09-03T13:40:54;17.02;;;4.72;;
22549;SDS011;11441;57.164;-2.120;2022-09-03T13:43:40;18.23;;;4.68;;
22549;SDS011;11441;57.164;-2.120;2022-09-03T13:46:15;18.25;;;5.00;;
22549;SDS011;11441;57.164;-2.120;2022-09-03T13:52:02;20.92;;;5.03;;
22549;SDS011;11441;57.164;-2.120;2022-09-03T13:54:35;29.05;;;5.63;;
22549;SDS011;11441;57.164;-2.120;2022-09-03T14:00:11;16.70;;;4.95;;
22549;SDS011;11441;57.164;-2.120;2022-09-03T14:03:24;27.58;;;5.93;;
22549;SDS011;11441;57.164;-2.120;2022-09-03T14:11:34;20.42;;;5.15;;
22549;SDS011;11441;57.164;-2.120;2022-09-03T14:19:44;16.55;;;4.38;;
22549;SDS011;11441;57.164;-2.120;2022-09-03T14:24:54;11.48;;;3.45;;
22549;SDS011;11441;57.164;-2.120;2022-09-03T14:27:30;21.88;;;5.03;;
22549;SDS011;11441;57.164;-2.120;2022-09-03T14:29:59;23.42;;;5.60;;
22549;SDS011;11441;57.164;-2.120;2022-09-03T14:32:36;24.17;;;4.88;;
22549;SDS011;11441;57.164;-2.120;2022-09-03T14:38:12;24.92;;;5.03;;
22549;SDS011;11441;57.164;-2.120;2022-09-03T14:41:25;21.20;;;5.38;;
22549;SDS011;11441;57.164;-2.120;2022-09-03T15:02:45;29.90;;;7.18;;
22549;SDS011;11441;57.164;-2.120;2022-09-03T15:07:23;22.00;;;5.60;;
22549;SDS011;11441;57.164;-2.120;2022-09-03T15:12:33;26.23;;;6.15;;
22549;SDS011;11441;57.164;-2.120;2022-09-03T15:15:52;25.48;;;5.32;;
22549;SDS011;11441;57.164;-2.120;2022-09-03T15:30:07;13.20;;;3.97;;
22549;SDS011;11441;57.164;-2.120;2022-09-03T15:32:43;12.98;;;4.00;;
22549;SDS011;11441;57.164;-2.120;2022-09-03T15:38:39;25.40;;;5.10;;
22549;SDS011;11441;57.164;-2.120;2022-09-03T15:41:22;24.75;;;6.55;;
22549;SDS011;11441;57.164;-2.120;2022-09-03T15:43:58;20.75;;;5.35;;
22549;SDS011;11441;57.164;-2.120;2022-09-03T15:49:05;22.55;;;6.25;;
22549;SDS011;11441;57.164;-2.120;2022-09-03T15:51:54;25.55;;;5.28;;
22549;SDS011;11441;57.164;-2.120;2022-09-03T15:55:07;27.20;;;6.32;;
22549;SDS011;11441;57.164;-2.120;2022-09-03T16:16:13;20.70;;;5.60;;
22549;SDS011;11441;57.164;-2.120;2022-09-03T16:27:37;26.08;;;6.55;;
22549;SDS011;11441;57.164;-2.120;2022-09-03T16:33:38;19.17;;;4.75;;
22549;SDS011;11441;57.164;-2.120;2022-09-03T16:39:12;23.90;;;6.18;;
22549;SDS011;11441;57.164;-2.120;2022-09-03T16:44:21;23.33;;;5.55;;
22549;SDS011;11441;57.164;-2.120;2022-09-03T16:52:58;26.58;;;6.30;;
22549;SDS011;11441;57.164;-2.120;2022-09-03T16:55:55;17.10;;;5.13;;
22549;SDS011;11441;57.164;-2.120;2022-09-03T17:06:46;24.50;;;6.35;;
22549;SDS011;11441;57.164;-2.120;2022-09-03T17:09:33;19.95;;;5.30;;
22549;SDS011;11441;57.164;-2.120;2022-09-03T17:15:19;23.77;;;6.88;;
22549;SDS011;11441;57.164;-2.120;2022-09-03T17:18:17;32.00;;;7.45;;
22549;SDS011;11441;57.164;-2.120;2022-09-03T17:24:27;27.90;;;6.82;;
22549;SDS011;11441;57.164;-2.120;2022-09-03T17:35:54;18.95;;;4.97;;
22549;SDS011;11441;57.164;-2.120;2022-09-03T17:50:52;19.27;;;5.43;;
22549;SDS011;11441;57.164;-2.120;2022-09-03T17:53:33;21.98;;;5.93;;
22549;SDS011;11441;57.164;-2.120;2022-09-03T17:56:32;21.73;;;5.20;;
22549;SDS011;11441;57.164;-2.120;2022-09-03T17:59:07;33.45;;;5.85;;
22549;SDS011;11441;57.164;-2.120;2022-09-03T18:07:30;18.67;;;4.95;;
22549;SDS011;11441;57.164;-2.120;2022-09-03T18:13:20;20.83;;;3.97;;
22549;SDS011;11441;57.164;-2.120;2022-09-03T18:15:59;20.98;;;5.28;;
22549;SDS011;11441;57.164;-2.120;2022-09-03T18:18:33;16.33;;;5.00;;
22549;SDS011;11441;57.164;-2.120;2022-09-03T18:21:10;22.40;;;4.05;;
22549;SDS011;11441;57.164;-2.120;2022-09-03T18:27:35;26.90;;;5.78;;
22549;SDS011;11441;57.164;-2.120;2022-09-03T18:30:22;22.65;;;4.68;;
22549;SDS011;11441;57.164;-2.120;2022-09-03T18:33:12;21.75;;;5.13;;
22549;SDS011;11441;57.164;-2.120;2022-09-03T18:35:57;23.65;;;6.07;;
22549;SDS011;11441;57.164;-2.120;2022-09-03T18:38:43;23.65;;;5.18;;
22549;SDS011;11441;57.164;-2.120;2022-09-03T18:45:04;24.45;;;4.25;;
22549;SDS011;11441;57.164;-2.120;2022-09-03T18:48:22;16.60;;;4.70;;
22549;SDS011;11441;57.164;-2.120;2022-09-03T18:51:29;19.13;;;4.55;;
22549;SDS011;11441;57.164;-2.120;2022-09-03T19:10:15;25.38;;;4.97;;
22549;SDS011;11441;57.164;-2.120;2022-09-03T19:16:36;21.42;;;5.45;;
22549;SDS011;11441;57.164;-2.120;2022-09-03T19:22:33;21.73;;;4.55;;
22549;SDS011;11441;57.164;-2.120;2022-09-03T19:25:23;29.42;;;5.85;;
22549;SDS011;11441;57.164;-2.120;2022-09-03T19:37:48;29.15;;;6.28;;
22549;SDS011;11441;57.164;-2.120;2022-09-03T19:41:04;17.17;;;3.85;;
22549;SDS011;11441;57.164;-2.120;2022-09-03T19:44:15;20.27;;;4.32;;
22549;SDS011;11441;57.164;-2.120;2022-09-03T19:50:29;15.68;;;4.50;;
22549;SDS011;11441;57.164;-2.120;2022-09-03T19:53:21;24.65;;;5.68;;
22549;SDS011;11441;57.164;-2.120;2022-09-03T19:56:09;20.55;;;4.70;;
22549;SDS011;11441;57.164;-2.120;2022-09-03T19:59:10;18.33;;;4.85;;
22549;SDS011;11441;57.164;-2.120;2022-09-03T20:02:01;23.88;;;4.82;;
22549;SDS011;11441;57.164;-2.120;2022-09-03T20:07:38;23.27;;;4.78;;
22549;SDS011;11441;57.164;-2.120;2022-09-03T20:10:23;18.33;;;3.67;;
22549;SDS011;11441;57.164;-2.120;2022-09-03T20:24:31;20.63;;;4.53;;
22549;SDS011;11441;57.164;-2.120;2022-09-03T20:48:51;16.90;;;3.63;;
22549;SDS011;11441;57.164;-2.120;2022-09-03T20:52:01;14.65;;;4.45;;
22549;SDS011;11441;57.164;-2.120;2022-09-03T20:55:20;13.02;;;2.88;;
22549;SDS011;11441;57.164;-2.120;2022-09-03T20:58:18;23.65;;;5.15;;
22549;SDS011;11441;57.164;-2.120;2022-09-03T21:04:02;14.40;;;3.65;;
22549;SDS011;11441;57.164;-2.120;2022-09-03T21:06:34;18.23;;;3.88;;
22549;SDS011;11441;57.164;-2.120;2022-09-03T21:12:29;13.40;;;3.15;;
22549;SDS011;11441;57.164;-2.120;2022-09-03T21:15:24;20.02;;;4.57;;
22549;SDS011;11441;57.164;-2.120;2022-09-03T21:18:07;22.48;;;4.72;;
22549;SDS011;11441;57.164;-2.120;2022-09-03T21:27:07;15.52;;;4.43;;
22549;SDS011;11441;57.164;-2.120;2022-09-03T21:29:42;33.15;;;6.28;;
22549;SDS011;11441;57.164;-2.120;2022-09-03T21:32:16;15.43;;;3.92;;
22549;SDS011;11441;57.164;-2.120;2022-09-03T21:37:36;11.75;;;4.18;;
22549;SDS011;11441;57.164;-2.120;2022-09-03T21:40:07;25.55;;;5.35;;
22549;SDS011;11441;57.164;-2.120;2022-09-03T21:42:39;18.90;;;4.43;;
22549;SDS011;11441;57.164;-2.120;2022-09-03T21:45:28;23.20;;;4.63;;
22549;SDS011;11441;57.164;-2.120;2022-09-03T21:48:19;24.50;;;5.18;;
22549;SDS011;11441;57.164;-2.120;2022-09-03T21:50:55;18.10;;;4.28;;
22549;SDS011;11441;57.164;-2.120;2022-09-03T21:53:43;17.45;;;3.97;;
22549;SDS011;11441;57.164;-2.120;2022-09-03T21:56:19;11.93;;;2.72;;
22549;SDS011;11441;57.164;-2.120;2022-09-03T22:01:20;18.48;;;4.70;;